Time;durP1;ratioP1;P1;durP2;ratioP2;P2;SDS_P1;SDS_P2;PMS_P1;PMS_P2;Temp;Humidity;BMP_temperature;BMP_pressure;BME280_temperature;BME280_humidity;BME280_pressure;Samples;Min_cycle;Max_cycle;Signal;HPM_P1;HPM_P2
2023/03/08 00:02:02;;;;;;;7.33;6.80;;;;;;;8.23;100.00;95657.56;5154848;27;20186;-62
2023/03/08 00:04:29;;;;;;;9.63;8.43;;;;;;;8.32;100.00;90762.97;5155082;27;20198;-63
2023/03/08 00:06:56;;;;;;;18.57;11.23;;;;;;;8.33;100.00;80314.31;5154213;27;20216;-63
2023/03/08 00:09:23;;;;;;;15.77;10.10;;;;;;;8.40;100.00;71530.22;5154468;27;20184;-63
2023/03/08 00:11:49;;;;;;;12.73;8.73;;;;;;;8.25;100.00;84870.72;5154458;27;20193;-62
2023/03/08 00:14:19;;;;;;;16.93;11.87;;;;;;;8.33;100.00;70546.03;5154017;27;20189;-64
2023/03/08 00:16:46;;;;;;;10.80;9.87;;;;;;;8.30;100.00;64369.94;5154120;27;20221;-64
2023/03/08 00:19:13;;;;;;;8.70;8.13;;;;;;;8.47;100.00;65038.75;5154404;27;20636;-63
2023/03/08 00:21:40;;;;;;;7.97;7.27;;;;;;;8.53;100.00;65370.22;5154643;27;20193;-64
2023/03/08 00:24:07;;;;;;;8.90;8.30;;;;;;;8.49;100.00;66664.91;5154189;27;20190;-63
2023/03/08 00:26:34;;;;;;;8.97;7.90;;;;;;;8.77;100.00;71900.09;5154194;27;20594;-63
2023/03/08 00:29:00;;;;;;;9.27;5.83;;;;;;;8.63;100.00;141792.94;5153601;27;20182;-63
2023/03/08 00:31:29;;;;;;;6.77;6.37;;;;;;;8.50;100.00;148181.72;5154468;27;20205;-63
2023/03/08 00:33:55;;;;;;;6.33;4.97;;;;;;;8.41;100.00;148159.00;5153452;27;20178;-63
2023/03/08 00:36:23;;;;;;;5.83;4.90;;;;;;;8.36;100.00;148145.16;5153738;27;20559;-64
2023/03/08 00:38:50;;;;;;;5.67;5.17;;;;;;;8.03;100.00;148063.06;5153734;27;20205;-63
2023/03/08 00:41:17;;;;;;;15.23;5.97;;;;;;;7.90;100.00;148031.53;5154189;27;20646;-62
2023/03/08 00:43:44;;;;;;;10.90;6.23;;;;;;;7.77;100.00;148000.00;5153853;27;20190;-64
2023/03/08 00:46:11;;;;;;;10.07;5.97;;;;;;;7.55;100.00;147943.28;5153865;27;20575;-63
2023/03/08 00:48:40;;;;;;;6.40;5.83;;;;;;;7.24;100.00;147866.38;5153655;27;20584;-64
2023/03/08 00:51:07;;;;;;;11.27;6.30;;;;;;;7.27;100.00;147875.19;5154114;27;20182;-63
2023/03/08 00:53:34;;;;;;;6.40;5.90;;;;;;;7.33;100.00;147890.34;5152934;27;20193;-63
2023/03/08 00:56:01;;;;;;;6.20;5.80;;;;;;;7.45;100.00;127729.25;5153701;27;20193;-64
2023/03/08 00:58:29;;;;;;;6.60;6.20;;;;;;;7.46;100.00;102735.91;5153615;27;20178;-67
2023/03/08 01:00:57;;;;;;;11.80;10.70;;;;;;;7.61;100.00;90980.88;5152868;27;20268;-63
2023/03/08 01:03:24;;;;;;;15.20;13.50;;;;;;;7.72;100.00;72422.56;5152855;27;20616;-63
2023/03/08 01:05:54;;;;;;;16.13;14.17;;;;;;;7.80;100.00;67560.28;5153382;27;20186;-63
2023/03/08 01:08:23;;;;;;;8.73;6.90;;;;;;;7.51;100.00;75321.63;5152892;27;20216;-64
2023/03/08 01:10:51;;;;;;;8.47;6.53;;;;;;;7.16;100.00;85366.19;5153680;27;20540;-63
2023/03/08 01:13:19;;;;;;;11.20;6.33;;;;;;;7.03;100.00;99060.66;5153451;27;20211;-63
2023/03/08 01:15:47;;;;;;;6.50;5.90;;;;;;;7.16;100.00;102684.09;5153525;27;20595;-64
2023/03/08 01:18:14;;;;;;;11.37;6.53;;;;;;;7.02;100.00;104296.47;5152976;27;20709;-63
2023/03/08 01:20:41;;;;;;;11.07;5.83;;;;;;;6.98;100.00;112490.44;5153264;27;20182;-62
2023/03/08 01:23:09;;;;;;;7.13;5.97;;;;;;;6.77;100.00;110809.09;5153548;27;20182;-64
2023/03/08 01:25:37;;;;;;;6.70;6.07;;;;;;;6.51;100.00;122588.06;5153619;27;20593;-62
2023/03/08 01:28:03;;;;;;;5.93;5.47;;;;;;;6.34;100.00;129797.75;5153015;27;20227;-63
2023/03/08 01:30:30;;;;;;;6.13;5.63;;;;;;;6.57;100.00;129517.84;5152683;27;20178;-63
2023/03/08 01:32:57;;;;;;;11.67;5.83;;;;;;;6.66;100.00;126571.72;5153161;27;20189;-63
2023/03/08 01:35:24;;;;;;;11.50;5.83;;;;;;;6.46;100.00;121261.59;5153203;27;20660;-63
2023/03/08 01:37:53;;;;;;;8.73;6.27;;;;;;;6.62;100.00;113078.66;5152889;27;20190;-64
2023/03/08 01:40:22;;;;;;;9.10;8.33;;;;;;;6.67;100.00;100635.69;5152998;27;20182;-63
2023/03/08 01:42:49;;;;;;;6.73;6.33;;;;;;;6.73;100.00;93129.72;5152843;27;20184;-64
2023/03/08 01:46:07;;;;;;;7.03;6.47;;;;;;;6.67;100.00;88552.66;5152678;27;20186;-63
2023/03/08 01:48:39;;;;;;;10.80;7.20;;;;;;;6.76;100.00;84982.63;5069137;28;20300;-64
2023/03/08 01:51:11;;;;;;;9.00;8.13;;;;;;;6.71;100.00;87581.63;5069073;28;20607;-62
2023/03/08 01:53:40;;;;;;;8.80;6.10;;;;;;;6.85;100.00;69719.97;5069167;28;20197;-63
2023/03/08 01:56:13;;;;;;;6.77;6.07;;;;;;;6.88;100.00;73292.22;5069008;28;20192;-64
2023/03/08 01:58:41;;;;;;;6.40;5.80;;;;;;;6.72;100.00;75870.13;5069222;28;20568;-63
2023/03/08 02:01:08;;;;;;;6.27;5.40;;;;;;;6.89;100.00;78492.53;5068867;28;20200;-64
2023/03/08 02:03:35;;;;;;;5.60;5.10;;;;;;;6.82;100.00;78158.00;5068800;28;20219;-63
2023/03/08 02:06:03;;;;;;;6.30;5.93;;;;;;;6.79;100.00;63557.34;5069056;28;20207;-63
2023/03/08 02:08:30;;;;;;;6.17;5.57;;;;;;;7.12;100.00;51953.97;5068941;28;20205;-64
2023/03/08 02:10:58;;;;;;;15.40;13.13;;;;;;;7.17;100.00;48409.91;5068864;28;20192;-63
2023/03/08 02:13:26;;;;;;;18.23;15.03;;;;;;;7.14;100.00;39713.44;5068787;28;20202;-64
2023/03/08 02:15:55;;;;;;;20.97;16.63;;;;;;;7.04;100.00;37456.47;5070058;28;20236;-63
2023/03/08 02:18:22;;;;;;;30.17;16.87;;;;;;;7.05;100.00;39064.09;5075496;27;20188;-62
2023/03/08 02:20:49;;;;;;;20.17;16.17;;;;;;;6.92;100.00;39698.28;5156226;27;20186;-64
2023/03/08 02:23:19;;;;;;;21.93;16.30;;;;;;;6.90;100.00;37126.22;5156577;27;20276;-63
2023/03/08 02:25:51;;;;;;;19.50;15.50;;;;;;;6.79;100.00;33267.63;5156823;27;20758;-63
2023/03/08 02:28:23;;;;;;;18.73;13.37;;;;;;;6.57;100.00;33575.19;5156395;27;20262;-66
2023/03/08 02:30:50;;;;;;;26.57;19.30;;;;;;;6.50;100.00;24924.28;5156528;27;20192;-63
2023/03/08 02:33:17;;;;;;;21.57;16.43;;;;;;;6.63;100.00;12158.81;5156499;27;20178;-64
2023/03/08 02:35:44;;;;;;;17.23;12.67;;;;;;;6.71;100.00;11204.69;5156435;27;20185;-63
2023/03/08 02:38:13;;;;;;;16.30;14.80;;;;;;;6.66;100.00;10885.06;5155522;27;20185;-63
2023/03/08 02:40:42;;;;;;;15.27;12.87;;;;;;;6.97;100.00;14718.94;5157048;27;20643;-63
2023/03/08 02:43:09;;;;;;;14.27;11.77;;;;;;;6.66;100.00;26851.69;5156006;27;20559;-63
2023/03/08 02:45:36;;;;;;;15.93;11.93;;;;;;;6.93;100.00;33275.41;5155719;27;20209;-63
2023/03/08 02:48:04;;;;;;;16.00;12.53;;;;;;;6.53;100.00;39671.22;5156027;27;20206;-63
2023/03/08 02:50:31;;;;;;;15.47;12.43;;;;;;;6.66;100.00;42573.22;5156466;27;20568;-64
2023/03/08 02:52:58;;;;;;;15.80;12.00;;;;;;;6.74;100.00;34227.06;5155673;27;20528;-64
2023/03/08 02:55:25;;;;;;;14.20;12.47;;;;;;;6.70;100.00;33583.03;5156496;27;20572;-63
2023/03/08 02:57:54;;;;;;;12.40;10.73;;;;;;;6.77;100.00;36154.66;5155139;27;20182;-63
2023/03/08 03:00:21;;;;;;;20.80;13.53;;;;;;;6.68;100.00;42253.47;5155955;27;20189;-64
2023/03/08 03:02:48;;;;;;;19.30;12.93;;;;;;;6.63;100.00;51265.06;5156173;27;20552;-66
2023/03/08 03:05:15;;;;;;;14.00;10.83;;;;;;;6.39;100.00;52856.31;5156088;27;20198;-64
2023/03/08 03:07:46;;;;;;;9.53;8.80;;;;;;;6.05;100.00;53791.91;5156073;27;20206;-63
2023/03/08 03:10:13;;;;;;;14.67;9.20;;;;;;;6.19;100.00;55417.13;5155355;27;20178;-63
2023/03/08 03:12:40;;;;;;;10.23;8.80;;;;;;;6.23;100.00;51229.69;5156048;27;20182;-63
2023/03/08 03:15:10;;;;;;;16.40;8.73;;;;;;;6.23;100.00;47365.41;5155667;27;20667;-63
2023/03/08 03:17:38;;;;;;;10.67;9.33;;;;;;;6.35;100.00;43193.22;5152514;27;20253;-64
2023/03/08 03:20:07;;;;;;;16.50;9.87;;;;;;;6.31;100.00;44476.34;5155498;27;20179;-62
2023/03/08 03:22:34;;;;;;;9.63;8.80;;;;;;;6.31;100.00;49948.09;5155864;27;20575;-63
2023/03/08 03:25:01;;;;;;;10.23;9.43;;;;;;;6.34;100.00;50595.50;5155402;27;20186;-63
2023/03/08 03:27:28;;;;;;;15.13;12.47;;;;;;;6.28;100.00;39974.75;5155059;27;20640;-63
2023/03/08 03:29:55;;;;;;;15.33;13.87;;;;;;;6.34;100.00;31638.41;5155422;27;20186;-64
2023/03/08 03:32:23;;;;;;;10.63;9.33;;;;;;;6.17;100.00;31628.69;5155655;27;20556;-63
2023/03/08 03:34:50;;;;;;;12.03;9.37;;;;;;;5.58;100.00;31595.31;5155270;27;20189;-63
2023/03/08 03:37:17;;;;;;;9.90;9.03;;;;;;;5.64;100.00;23926.97;5155251;27;20534;-63
2023/03/08 03:39:44;;;;;;;19.50;9.60;;;;;;;5.40;100.00;16902.47;5136289;27;20186;-63
2023/03/08 03:42:11;;;;;;;12.97;10.73;;;;;;;5.46;100.00;14675.50;5154587;27;20189;-63
2023/03/08 03:44:38;;;;;;;18.77;13.30;;;;;;;5.74;100.00;6413.91;5154892;27;20182;-64
2023/03/08 03:47:05;;;;;;;18.70;13.33;;;;;;;5.78;100.00;1018.47;5154139;27;20183;-65
2023/03/08 03:49:33;;;;;;;13.93;10.87;;;;;;;6.07;100.00;-2151.16;5154904;27;20553;-62
2023/03/08 03:52:00;;;;;;;11.10;10.37;;;;;;;6.26;100.00;-1833.75;5154873;27;20533;-64
2023/03/08 03:54:27;;;;;;;13.90;11.30;;;;;;;6.39;100.00;-247.09;5155193;27;20527;-64
2023/03/08 03:56:57;;;;;;;11.03;10.23;;;;;;;6.25;100.00;2291.41;5155105;27;20190;-63
2023/03/08 03:59:24;;;;;;;12.83;8.97;;;;;;;6.38;100.00;17572.34;5155032;27;20718;-64
2023/03/08 04:01:51;;;;;;;10.73;9.87;;;;;;;6.32;100.00;24276.81;5154244;27;20182;-64
2023/03/08 04:04:18;;;;;;;11.00;9.10;;;;;;;6.14;100.00;26506.31;5154401;27;20194;-63
2023/03/08 04:06:46;;;;;;;15.00;9.30;;;;;;;6.21;100.00;27469.34;5154990;27;20202;-63
2023/03/08 04:09:15;;;;;;;12.93;8.93;;;;;;;6.24;100.00;29071.22;5154437;27;20201;-64
2023/03/08 04:11:43;;;;;;;11.80;8.67;;;;;;;6.26;100.00;31633.84;5154773;27;20659;-63
2023/03/08 04:14:10;;;;;;;17.23;11.20;;;;;;;6.26;100.00;33877.34;5153807;27;20181;-63
2023/03/08 04:16:39;;;;;;;16.00;8.70;;;;;;;5.92;100.00;37703.56;5153922;27;20226;-63
2023/03/08 04:19:10;;;;;;;15.37;9.50;;;;;;;6.01;100.00;36426.63;5154264;27;20189;-64
2023/03/08 04:21:37;;;;;;;9.67;8.10;;;;;;;5.97;100.00;37386.16;5136171;27;20552;-63
2023/03/08 04:24:06;;;;;;;13.17;8.73;;;;;;;5.41;100.00;33505.91;5154028;27;20648;-64
2023/03/08 04:26:33;;;;;;;14.57;8.73;;;;;;;5.71;100.00;30962.94;5154118;27;20182;-62
2023/03/08 04:29:04;;;;;;;14.50;8.27;;;;;;;5.63;100.00;29998.44;5118628;27;20221;-63
2023/03/08 04:31:33;;;;;;;10.90;7.53;;;;;;;5.81;100.00;26490.75;5154419;27;20204;-63
2023/03/08 04:34:01;;;;;;;12.43;9.87;;;;;;;5.88;100.00;23937.63;5154054;27;20271;-63
2023/03/08 04:36:28;;;;;;;15.27;8.87;;;;;;;5.82;100.00;25212.97;5153310;27;20184;-63
2023/03/08 04:38:55;;;;;;;17.13;9.33;;;;;;;5.82;100.00;22657.84;5153062;27;20550;-64
2023/03/08 04:41:23;;;;;;;37.50;10.50;;;;;;;5.97;100.00;25219.94;5153617;27;20651;-64
2023/03/08 04:43:52;;;;;;;23.50;8.80;;;;;;;6.02;100.00;27459.81;5153858;27;20182;-63
2023/03/08 04:46:22;;;;;;;28.20;9.97;;;;;;;6.06;100.00;28101.84;5153819;27;20186;-63
2023/03/08 04:48:51;;;;;;;20.87;9.37;;;;;;;5.98;100.00;31618.41;5153615;27;20202;-63
2023/03/08 04:51:18;;;;;;;30.83;9.50;;;;;;;6.20;100.00;34193.94;5153976;27;20182;-63
2023/03/08 04:53:45;;;;;;;26.30;11.10;;;;;;;6.27;100.00;33557.09;5153533;27;20182;-64
2023/03/08 04:56:14;;;;;;;10.13;8.57;;;;;;;6.29;100.00;32596.78;5153544;27;20186;-63
2023/03/08 04:58:42;;;;;;;21.93;10.10;;;;;;;6.49;100.00;31326.50;5153666;27;20214;-64
2023/03/08 05:01:11;;;;;;;24.60;11.17;;;;;;;6.66;100.00;28772.84;5152951;27;20186;-63
2023/03/08 05:03:38;;;;;;;31.00;13.07;;;;;;;6.65;100.00;36788.97;5153524;27;20213;-64
2023/03/08 05:06:06;;;;;;;45.20;12.37;;;;;;;6.73;100.00;46440.81;5153540;27;20182;-63
2023/03/08 05:08:32;;;;;;;36.07;11.97;;;;;;;7.03;100.00;51300.47;5153746;27;20250;-63
2023/03/08 05:11:01;;;;;;;41.77;12.13;;;;;;;7.60;100.00;55552.34;5153408;27;20193;-63
2023/03/08 05:13:29;;;;;;;16.63;11.03;;;;;;;8.11;100.00;68244.81;5153576;27;20633;-63
2023/03/08 05:15:58;;;;;;;24.83;12.70;;;;;;;8.30;100.00;88797.38;5153348;27;20221;-64
2023/03/08 05:18:25;;;;;;;27.47;16.80;;;;;;;8.77;100.00;118103.78;5153242;27;20192;-64
2023/03/08 05:20:56;;;;;;;41.73;14.77;;;;;;;9.03;100.00;148313.00;5153202;27;20624;-64
2023/03/08 05:23:23;;;;;;;29.03;14.23;;;;;;;8.78;100.00;148249.91;5153259;27;20178;-65
2023/03/08 05:25:53;;;;;;;20.83;13.40;;;;;;;9.17;100.00;148348.31;5152895;27;20186;-64
2023/03/08 05:28:21;;;;;;;32.30;12.20;;;;;;;9.74;100.00;148489.78;5153077;27;20266;-64
2023/03/08 05:30:48;;;;;;;25.87;12.37;;;;;;;10.64;100.00;148716.03;5153740;27;20530;-65
2023/03/08 05:33:17;;;;;;;32.97;12.77;;;;;;;11.53;100.00;148937.34;5152738;27;20209;-65
2023/03/08 05:35:51;;;;;;;25.30;11.00;;;;;;;12.13;100.00;149089.22;5152852;27;20184;-65
2023/03/08 05:38:18;;;;;;;26.87;11.90;;;;;;;12.51;100.00;149184.16;5153166;27;20182;-65
2023/03/08 05:40:45;;;;;;;50.63;12.87;;;;;;;12.79;100.00;149253.78;5153159;27;20186;-65
2023/03/08 05:43:12;;;;;;;73.03;17.37;;;;;;;12.50;100.00;149181.63;5152983;27;20190;-66
2023/03/08 05:45:39;;;;;;;62.17;16.27;;;;;;;12.29;100.00;149129.72;5152827;27;20628;-66
2023/03/08 05:48:06;;;;;;;72.47;17.13;;;;;;;12.13;100.00;149089.22;5153171;27;20232;-67
2023/03/08 05:50:36;;;;;;;50.13;15.93;;;;;;;11.98;100.00;149051.25;5137233;27;20568;-65
2023/03/08 05:53:03;;;;;;;58.17;16.77;;;;;;;12.14;100.00;149091.72;5157314;27;20644;-65
2023/03/08 05:55:30;;;;;;;53.17;15.03;;;;;;;12.26;100.00;149120.88;5157306;27;20193;-66
2023/03/08 05:57:57;;;;;;;32.47;13.20;;;;;;;12.55;100.00;149194.28;5157070;27;20182;-65
2023/03/08 06:00:25;;;;;;;41.30;13.23;;;;;;;12.79;100.00;149253.78;5157132;27;20192;-64
2023/03/08 06:02:52;;;;;;;55.63;15.40;;;;;;;12.87;100.00;149272.75;5156475;27;20190;-64
2023/03/08 06:05:19;;;;;;;36.53;13.20;;;;;;;13.15;100.00;149345.00;5157450;27;20652;-65
2023/03/08 06:07:47;;;;;;;43.63;13.30;;;;;;;13.10;100.00;149332.38;5156251;27;20190;-65
2023/03/08 06:10:14;;;;;;;51.37;14.53;;;;;;;13.52;100.00;149437.50;5156534;27;20189;-65
2023/03/08 06:12:40;;;;;;;41.37;14.67;;;;;;;13.87;100.00;149524.94;5157316;27;20640;-64
2023/03/08 06:15:09;;;;;;;35.40;14.07;;;;;;;14.01;100.00;149560.41;5156989;27;20234;-65
2023/03/08 06:17:36;;;;;;;43.40;12.70;;;;;;;14.68;100.00;149727.81;5156887;27;20233;-63
2023/03/08 06:20:03;;;;;;;28.23;14.83;;;;;;;15.45;100.00;149921.88;5156549;27;20556;-64
2023/03/08 06:22:30;;;;;;;28.23;14.63;;;;;;;15.90;100.00;150033.63;5157926;27;20186;-68
2023/03/08 06:24:58;;;;;;;27.77;14.07;;;;;;;16.24;100.00;150118.66;5156781;27;20662;-67
2023/03/08 06:27:25;;;;;;;44.77;13.53;;;;;;;16.46;100.00;150174.53;5156383;27;20186;-67
2023/03/08 06:29:52;;;;;;;37.33;14.67;;;;;;;16.56;100.00;150199.91;5156821;27;20580;-67
2023/03/08 06:32:19;;;;;;;32.30;16.53;;;;;;;17.04;100.00;150319.38;5157192;27;20564;-68
2023/03/08 06:34:46;;;;;;;34.53;19.33;;;;;;;17.15;100.00;150348.56;5157355;27;20643;-68
2023/03/08 06:37:13;;;;;;;27.80;19.57;;;;;;;17.33;100.00;150393.06;5157354;27;20201;-68
2023/03/08 06:39:40;;;;;;;37.00;20.60;;;;;;;17.26;100.00;150375.28;5156783;27;20182;-68
2023/03/08 06:42:11;;;;;;;26.00;20.37;;;;;;;16.57;100.00;150202.50;5156628;27;20654;-67
2023/03/08 06:44:38;;;;;;;31.33;20.40;;;;;;;16.34;100.00;150144.03;5156591;27;20593;-68
2023/03/08 06:47:05;;;;;;;30.97;20.80;;;;;;;16.85;100.00;150272.34;5137317;27;20208;-67
2023/03/08 06:49:31;;;;;;;36.80;21.83;;;;;;;17.13;100.00;150343.50;5155710;27;20294;-67
2023/03/08 06:51:58;;;;;;;37.20;22.37;;;;;;;17.38;100.00;150404.50;5156200;27;20186;-68
2023/03/08 06:54:25;;;;;;;27.37;20.77;;;;;;;17.53;100.00;150442.59;5155864;27;20628;-68
2023/03/08 06:56:52;;;;;;;27.10;18.47;;;;;;;17.80;100.00;150512.56;5155643;27;20182;-68
2023/03/08 06:59:20;;;;;;;27.23;19.97;;;;;;;17.92;100.00;150540.50;5155868;27;20188;-68
2023/03/08 07:01:47;;;;;;;29.53;18.80;;;;;;;18.26;100.00;150626.97;5154496;27;20186;-65
2023/03/08 07:04:14;;;;;;;21.23;16.07;;;;;;;18.22;100.00;150616.78;5156660;27;20190;-66
2023/03/08 07:06:41;;;;;;;24.57;17.53;;;;;;;18.45;100.00;150674.03;5156540;27;20186;-65
2023/03/08 07:09:08;;;;;;;36.07;18.13;;;;;;;18.53;100.00;150695.72;5156091;27;20206;-66
2023/03/08 07:11:35;;;;;;;28.73;18.73;;;;;;;18.89;100.00;150784.72;5156584;27;20600;-67
2023/03/08 07:14:02;;;;;;;45.20;19.53;;;;;;;18.76;100.00;150751.63;5158067;27;20182;-67
2023/03/08 07:16:30;;;;;;;37.83;18.20;;;;;;;19.07;100.00;150831.78;5157999;27;20589;-65
2023/03/08 07:18:59;;;;;;;17.50;14.67;;;;;;;19.21;100.00;150864.88;5159917;27;20226;-68
2023/03/08 07:21:26;;;;;;;12.20;11.03;;;;;;;19.04;98.53;150824.19;5161154;27;20221;-67
2023/03/08 07:23:53;;;;;;;12.17;8.27;;;;;;;19.40;94.46;150913.22;5162622;27;20190;-67
2023/03/08 07:26:19;;;;;;;19.73;10.37;;;;;;;19.46;97.23;150929.81;5162355;27;20246;-67
2023/03/08 07:28:50;;;;;;;14.40;8.67;;;;;;;19.27;93.49;150881.41;5162044;27;20221;-68
2023/03/08 07:31:17;;;;;;;8.13;5.40;;;;;;;19.54;88.33;150950.19;5160032;27;20211;-68
2023/03/08 07:33:45;;;;;;;13.03;6.27;;;;;;;19.88;84.13;151035.47;5157599;27;20584;-67
2023/03/08 07:36:12;;;;;;;9.60;5.60;;;;;;;20.09;83.00;151087.66;5158126;27;20194;-67
2023/03/08 07:38:39;;;;;;;5.13;4.80;;;;;;;20.15;79.96;151102.94;5151033;27;20182;-68
2023/03/08 07:41:06;;;;;;;5.23;4.87;;;;;;;19.99;81.20;151062.19;5050797;28;20207;-66
2023/03/08 07:43:34;;;;;;;5.70;4.90;;;;;;;20.26;84.26;151130.94;5052927;28;20604;-69
2023/03/08 07:46:03;;;;;;;10.23;4.95;;;;;;;20.56;78.27;151206.13;5053357;27;20193;-69
2023/03/08 07:48:30;;;;;;;6.57;5.03;;;;;;;20.74;77.56;151252.00;5052232;27;20230;-68
2023/03/08 07:51:05;;;;;;;5.13;4.63;;;;;;;20.89;73.61;151288.91;5051909;28;20181;-69
2023/03/08 07:53:33;;;;;;;13.20;5.70;;;;;;;21.12;74.55;151346.25;5052674;27;20290;-68
2023/03/08 07:56:00;;;;;;;6.18;5.82;;;;;;;21.29;72.99;151389.63;5051950;28;20704;-68
2023/03/08 07:58:27;;;;;;;6.53;6.00;;;;;;;21.05;74.60;151329.66;5050557;28;20189;-69
2023/03/08 08:00:54;;;;;;;6.50;5.88;;;;;;;21.07;71.63;151333.50;5051220;28;20186;-69
2023/03/08 08:03:21;;;;;;;5.75;5.28;;;;;;;20.87;72.32;151283.84;5050814;28;20559;-69
2023/03/08 08:05:48;;;;;;;5.85;5.28;;;;;;;21.10;71.02;151342.41;5050631;28;20711;-67
2023/03/08 08:08:16;;;;;;;5.40;4.10;;;;;;;21.16;67.95;151357.78;5066888;27;20190;-70
2023/03/08 08:10:44;;;;;;;7.38;4.32;;;;;;;21.10;65.56;151341.13;5049818;28;20224;-68
2023/03/08 08:13:11;;;;;;;6.78;5.55;;;;;;;21.10;67.22;151341.13;5049407;28;20182;-68
2023/03/08 08:15:38;;;;;;;8.50;6.10;;;;;;;21.24;66.78;151376.88;5050176;28;20563;-67
2023/03/08 08:18:05;;;;;;;8.90;5.13;;;;;;;21.12;66.88;151347.59;5050739;28;20190;-68
2023/03/08 08:20:37;;;;;;;7.15;6.55;;;;;;;21.53;64.27;151449.50;5050592;28;20221;-69
2023/03/08 08:23:06;;;;;;;8.45;7.85;;;;;;;21.59;63.68;151466.09;5050682;28;20276;-68
2023/03/08 08:25:34;;;;;;;7.80;7.38;;;;;;;22.08;61.85;151589.78;5050240;28;20673;-69
2023/03/08 08:28:01;;;;;;;12.95;7.60;;;;;;;22.28;60.82;151639.47;5050358;28;20189;-68
2023/03/08 08:30:28;;;;;;;12.55;7.00;;;;;;;22.36;60.15;151658.66;5049547;28;20212;-68
2023/03/08 08:32:55;;;;;;;5.05;4.75;;;;;;;22.70;58.05;151746.66;5049689;28;20193;-68
2023/03/08 08:35:22;;;;;;;5.72;5.25;;;;;;;22.72;57.33;151750.50;5050115;28;20190;-69
2023/03/08 08:37:48;;;;;;;10.43;6.53;;;;;;;22.88;57.57;151791.31;5050215;28;20284;-68
2023/03/08 08:40:15;;;;;;;4.80;3.83;;;;;;;23.04;55.31;151832.13;5048824;28;20185;-68
2023/03/08 08:42:44;;;;;;;11.40;4.53;;;;;;;23.34;54.50;151906.16;5049675;28;20186;-68
2023/03/08 08:45:11;;;;;;;4.28;3.35;;;;;;;23.82;52.44;152028.69;5050371;28;20202;-67
2023/03/08 08:47:38;;;;;;;5.70;4.03;;;;;;;24.21;51.21;152125.78;5031565;28;20181;-67
2023/03/08 08:50:05;;;;;;;5.80;3.95;;;;;;;24.44;51.23;152184.53;5049708;28;20639;-67
2023/03/08 08:52:34;;;;;;;9.80;6.32;;;;;;;24.27;51.55;152141.13;5049327;28;20645;-68
2023/03/08 08:55:01;;;;;;;8.38;7.57;;;;;;;24.25;50.61;152137.28;5049666;28;20330;-68
2023/03/08 08:57:31;;;;;;;8.60;7.13;;;;;;;24.50;50.74;152199.84;5049613;28;20192;-70
2023/03/08 09:00:00;;;;;;;7.25;6.50;;;;;;;24.54;49.58;152211.31;5049291;28;20276;-69
2023/03/08 09:02:29;;;;;;;6.63;6.03;;;;;;;24.61;50.48;152227.97;5049345;28;20205;-65
2023/03/08 09:04:55;;;;;;;7.43;6.68;;;;;;;25.21;48.74;152378.69;5049962;28;20708;-68
2023/03/08 09:07:25;;;;;;;6.78;6.38;;;;;;;25.33;47.61;152410.63;5049736;28;20539;-70
2023/03/08 09:09:54;;;;;;;7.47;6.90;;;;;;;25.31;46.81;152404.25;5049366;28;20582;-67
2023/03/08 09:12:21;;;;;;;7.90;6.95;;;;;;;26.14;45.54;152615.16;5050340;28;20566;-68
2023/03/08 09:14:48;;;;;;;9.63;6.60;;;;;;;26.19;45.25;152627.97;5050008;28;20603;-68
2023/03/08 09:17:16;;;;;;;6.93;6.38;;;;;;;25.95;45.47;152565.31;5049758;27;20247;-70
2023/03/08 09:19:43;;;;;;;13.38;6.75;;;;;;;25.41;47.16;152429.84;5049859;28;20182;-68
2023/03/08 09:22:11;;;;;;;7.22;6.68;;;;;;;25.61;44.52;152479.69;5031450;28;20196;-67
2023/03/08 09:24:38;;;;;;;7.05;5.60;;;;;;;25.58;43.65;152472.03;5049016;28;20543;-68
2023/03/08 09:27:07;;;;;;;11.25;5.50;;;;;;;25.27;44.45;152394.03;5048887;28;20238;-68
2023/03/08 09:29:35;;;;;;;7.80;3.60;;;;;;;25.72;43.18;152507.81;5048579;28;20201;-67
2023/03/08 09:32:02;;;;;;;5.55;3.60;;;;;;;26.05;42.17;152590.91;5049590;28;20185;-68
2023/03/08 09:34:31;;;;;;;7.65;3.70;;;;;;;25.05;43.58;152339.09;5039758;28;20201;-67
2023/03/08 09:36:57;;;;;;;6.75;3.00;;;;;;;24.82;43.44;152280.31;5048318;28;20200;-67
2023/03/08 09:39:26;;;;;;;5.50;3.15;;;;;;;24.75;44.37;152263.69;5048200;28;20224;-65
2023/03/08 09:41:55;;;;;;;6.05;2.95;;;;;;;24.85;43.90;152289.31;5048925;28;20197;-66
2023/03/08 09:44:58;;;;;;;2.92;2.72;;;;;;;25.29;43.59;152399.19;5049024;28;20268;-67
2023/03/08 09:47:39;;;;;;;11.65;3.55;;;;;;;26.30;42.28;152654.88;5049006;28;20548;-66
2023/03/08 09:50:32;;;;;;;3.45;2.58;;;;;;;26.38;41.62;152675.34;5049298;28;20213;-67
2023/03/08 09:53:04;;;;;;;4.30;2.47;;;;;;;26.85;40.93;152793.03;5050708;28;20261;-67
2023/03/08 09:55:33;;;;;;;2.45;2.25;;;;;;;26.55;40.60;152718.81;5048466;28;20189;-67
2023/03/08 09:58:02;;;;;;;3.65;2.60;;;;;;;25.98;41.85;152574.28;5047602;28;20292;-67
2023/03/08 10:00:32;;;;;;;4.70;2.80;;;;;;;25.61;42.65;152480.97;5048782;28;20544;-66
2023/03/08 10:03:42;;;;;;;3.40;2.83;;;;;;;25.33;42.75;152410.63;5048235;28;20667;-68
2023/03/08 10:06:19;;;;;;;4.35;3.22;;;;;;;26.20;41.81;152630.56;4987825;28;20225;-69
2023/03/08 10:08:55;;;;;;;2.72;2.53;;;;;;;26.93;40.56;152813.47;4987587;28;20195;-68
2023/03/08 10:11:31;;;;;;;2.40;2.25;;;;;;;25.88;40.94;152550.03;5022089;28;20228;-67
2023/03/08 10:14:06;;;;;;;8.15;2.70;;;;;;;26.80;39.98;152782.75;5048273;28;20196;-67
2023/03/08 10:16:37;;;;;;;3.15;2.47;;;;;;;27.32;39.29;152913.28;5048552;28;20260;-67
2023/03/08 10:19:11;;;;;;;2.63;2.53;;;;;;;27.48;39.25;152952.97;5048896;28;20560;-68
2023/03/08 10:21:44;;;;;;;2.45;2.35;;;;;;;26.69;39.24;152754.59;5048698;28;20244;-65
2023/03/08 10:24:16;;;;;;;2.55;2.35;;;;;;;25.48;40.16;152447.72;5047480;28;20186;-63
2023/03/08 10:26:44;;;;;;;2.30;2.10;;;;;;;25.47;41.03;152446.41;5047673;28;20182;-64
2023/03/08 10:29:12;;;;;;;5.15;2.97;;;;;;;25.17;40.54;152369.75;5047396;28;20272;-63
2023/03/08 10:31:42;;;;;;;5.63;4.93;;;;;;;25.71;40.43;152506.56;5047457;28;20186;-64
2023/03/08 10:34:14;;;;;;;4.45;4.25;;;;;;;25.61;40.60;152479.69;5047661;28;20182;-63
2023/03/08 10:36:54;;;;;;;3.72;2.60;;;;;;;26.50;38.22;152706.00;5048856;28;20203;-64
2023/03/08 10:39:22;;;;;;;2.47;2.33;;;;;;;26.30;37.79;152654.88;5050820;28;20193;-64
2023/03/08 10:41:53;;;;;;;2.42;2.28;;;;;;;26.72;36.66;152762.28;5051091;28;20186;-63
2023/03/08 10:44:32;;;;;;;2.42;2.22;;;;;;;27.11;35.73;152860.84;5051143;28;20201;-64
2023/03/08 10:47:01;;;;;;;3.10;3.00;;;;;;;27.22;35.36;152887.66;5051431;28;20663;-64
2023/03/08 10:49:28;;;;;;;2.42;2.30;;;;;;;27.44;34.93;152943.97;5048839;28;20288;-63
2023/03/08 10:52:00;;;;;;;6.88;2.55;;;;;;;27.51;35.15;152960.63;5051069;28;20659;-63
2023/03/08 10:54:28;;;;;;;3.70;2.80;;;;;;;26.99;34.78;152830.09;5050630;28;20186;-63
2023/03/08 10:56:58;;;;;;;4.85;2.28;;;;;;;27.28;35.08;152904.28;5050433;28;20190;-63
2023/03/08 10:59:31;;;;;;;2.38;2.17;;;;;;;27.66;34.78;152999.03;5042357;28;20190;-62
2023/03/08 11:02:08;;;;;;;2.20;2.10;;;;;;;28.72;33.45;153266.66;5050793;28;20672;-64
2023/03/08 11:04:36;;;;;;;3.38;2.00;;;;;;;29.71;32.30;153517.72;5050681;28;20654;-65
2023/03/08 11:07:23;;;;;;;2.42;2.33;;;;;;;30.37;31.62;153685.69;5050740;28;20211;-63
2023/03/08 11:09:50;;;;;;;2.15;2.05;;;;;;;29.64;31.75;153501.09;5050608;28;20205;-63
2023/03/08 11:12:25;;;;;;;2.55;2.45;;;;;;;29.43;32.11;153447.28;5050982;28;20215;-63
2023/03/08 11:14:52;;;;;;;4.95;1.95;;;;;;;29.53;31.79;153471.63;5050514;28;20273;-63
2023/03/08 11:17:25;;;;;;;7.72;2.47;;;;;;;30.37;31.01;153685.69;5114945;27;20237;-63
2023/03/08 11:20:09;;;;;;;5.28;2.17;;;;;;;30.92;30.54;153825.47;5134537;27;20179;-63
2023/03/08 11:22:50;;;;;;;11.05;3.17;;;;;;;29.91;31.43;153569.06;5127883;27;20531;-64
2023/03/08 11:25:31;;;;;;;4.53;2.53;;;;;;;29.42;31.09;153446.00;5134555;27;20175;-63
2023/03/08 11:28:23;;;;;;;6.60;2.60;;;;;;;27.87;32.69;153052.78;5134180;27;20197;-61